Time;durP1;ratioP1;P1;durP2;ratioP2;P2;SDS_P1;SDS_P2;PMS_P1;PMS_P2;Temp;Humidity;BMP_temperature;BMP_pressure;BME280_temperature;BME280_humidity;BME280_pressure;Samples;Min_cycle;Max_cycle;Signal;HPM_P1;HPM_P2
2022/06/01 00:01:51;;;;;;;6.90;6.17;;;;;;;14.40;85.83;97915.50;4125927;28;20731;-94
2022/06/01 00:03:54;;;;;;;8.40;6.90;;;;;;;14.42;85.77;97915.38;4107965;28;20939;-93
2022/06/01 00:05:57;;;;;;;8.23;6.40;;;;;;;14.38;86.55;97909.53;4109934;28;20742;-93
2022/06/01 00:08:01;;;;;;;7.67;6.87;;;;;;;14.36;87.21;97906.22;4090996;28;21076;-94
2022/06/01 00:10:05;;;;;;;8.30;6.30;;;;;;;14.38;86.12;97901.66;4094987;28;20654;-94
2022/06/01 00:12:09;;;;;;;7.20;5.97;;;;;;;14.33;84.90;97900.44;4098626;29;20641;-93
2022/06/01 00:14:14;;;;;;;7.10;5.90;;;;;;;14.25;84.38;97902.84;4095123;29;21281;-93
2022/06/01 00:16:17;;;;;;;9.50;8.10;;;;;;;14.16;85.12;97904.50;4096423;28;21215;-93
2022/06/01 00:18:22;;;;;;;7.83;6.70;;;;;;;14.11;85.27;97911.06;4092003;28;21711;-94
2022/06/01 00:20:25;;;;;;;7.37;6.77;;;;;;;14.07;86.08;97911.47;4129294;28;20732;-94
2022/06/01 00:22:28;;;;;;;11.30;6.40;;;;;;;14.06;86.87;97910.66;4100450;28;21030;-93
2022/06/01 00:24:31;;;;;;;7.70;6.90;;;;;;;14.07;86.87;97904.41;4112105;28;20632;-93
2022/06/01 00:26:34;;;;;;;9.20;6.77;;;;;;;14.08;86.98;97908.72;4123120;28;20665;-93
2022/06/01 00:28:38;;;;;;;10.70;7.10;;;;;;;14.08;86.94;97916.59;4128518;28;20634;-93
2022/06/01 00:30:42;;;;;;;7.80;7.10;;;;;;;14.05;87.29;97908.97;4111314;28;20640;-93
2022/06/01 00:32:46;;;;;;;8.23;6.87;;;;;;;14.06;87.21;97915.91;4110611;28;20653;-92
2022/06/01 00:34:49;;;;;;;8.13;6.40;;;;;;;14.02;87.02;97911.00;4108150;28;20645;-94
2022/06/01 00:36:52;;;;;;;8.30;6.50;;;;;;;13.99;87.24;97919.94;4092102;28;20637;-94
2022/06/01 00:38:55;;;;;;;10.03;6.57;;;;;;;13.99;86.99;97916.50;4127045;28;20731;-93
2022/06/01 00:40:58;;;;;;;6.60;6.00;;;;;;;13.97;87.40;97916.63;4122685;28;20747;-94
2022/06/01 00:43:18;;;;;;;7.00;6.20;;;;;;;13.92;86.71;97910.09;4112070;28;20642;-95
2022/06/01 00:45:23;;;;;;;8.00;7.20;;;;;;;13.84;87.14;97916.00;4095570;28;20652;-94
2022/06/01 00:47:28;;;;;;;7.30;6.10;;;;;;;13.81;86.36;97913.63;4118622;28;20640;-94
2022/06/01 00:49:32;;;;;;;8.60;6.60;;;;;;;13.78;86.12;97911.25;4112898;28;20758;-94
2022/06/01 00:51:35;;;;;;;7.10;6.40;;;;;;;13.71;87.44;97911.91;4095915;28;20758;-93
2022/06/01 00:53:41;;;;;;;7.77;6.67;;;;;;;13.71;87.45;97918.00;4092079;28;20639;-94
2022/06/01 00:55:46;;;;;;;7.27;6.53;;;;;;;13.69;87.12;97909.41;4092604;28;21016;-94
2022/06/01 00:57:52;;;;;;;7.57;6.87;;;;;;;13.64;86.54;97916.84;4097024;28;20662;-93
2022/06/01 00:59:55;;;;;;;8.50;6.80;;;;;;;13.62;87.06;97923.19;4128694;28;20657;-93
2022/06/01 01:01:59;;;;;;;8.13;7.33;;;;;;;13.60;87.70;97909.34;4110505;28;20635;-94
2022/06/01 01:04:05;;;;;;;7.50;6.80;;;;;;;13.63;88.07;97916.16;4110476;28;20654;-94
2022/06/01 01:06:12;;;;;;;7.77;6.93;;;;;;;13.63;87.95;97919.59;4125516;28;20641;-94
2022/06/01 01:08:16;;;;;;;8.83;7.87;;;;;;;13.55;86.94;97914.16;4096111;28;20655;-94
2022/06/01 01:10:20;;;;;;;7.97;7.17;;;;;;;13.49;86.99;97921.69;4125170;28;20653;-94
2022/06/01 01:12:23;;;;;;;7.90;7.07;;;;;;;13.40;87.35;97918.03;4092260;29;20621;-94
2022/06/01 01:14:28;;;;;;;9.50;7.60;;;;;;;13.39;86.78;97912.94;4090966;28;20651;-94
2022/06/01 01:16:32;;;;;;;8.53;7.47;;;;;;;13.39;87.11;97918.16;4108993;28;20643;-94
2022/06/01 01:18:38;;;;;;;9.37;7.53;;;;;;;13.30;87.25;97911.88;4093946;28;20699;-94
2022/06/01 01:20:46;;;;;;;8.10;7.10;;;;;;;13.29;88.38;97915.47;4112611;28;20642;-95
2022/06/01 01:22:54;;;;;;;8.40;6.70;;;;;;;13.27;87.41;97912.13;4110586;28;24281;-93
2022/06/01 01:25:20;;;;;;;9.83;7.13;;;;;;;13.32;88.47;97915.22;4117483;28;20637;-94
2022/06/01 01:27:23;;;;;;;7.77;6.90;;;;;;;13.34;89.05;97921.16;4109364;28;20662;-93
2022/06/01 01:29:32;;;;;;;7.50;6.80;;;;;;;13.39;89.28;97920.78;4095628;28;20666;-94
2022/06/01 01:31:36;;;;;;;8.30;7.07;;;;;;;13.41;89.17;97924.09;4107337;28;20645;-94
2022/06/01 01:33:40;;;;;;;11.50;6.80;;;;;;;13.41;90.28;97934.56;4110130;28;20670;-94
2022/06/01 01:35:44;;;;;;;8.13;6.43;;;;;;;13.44;89.50;97934.31;4114329;28;20639;-94
2022/06/01 01:37:48;;;;;;;6.50;5.90;;;;;;;13.47;89.13;97931.47;4124546;28;21010;-94
2022/06/01 01:39:53;;;;;;;8.20;7.40;;;;;;;13.47;89.07;97928.84;4095684;28;20640;-94
2022/06/01 01:41:58;;;;;;;10.70;7.00;;;;;;;13.48;88.45;97925.28;4120937;28;20641;-93
2022/06/01 01:44:04;;;;;;;10.00;7.10;;;;;;;13.47;88.79;97920.97;4109788;28;21209;-93
2022/06/01 01:46:07;;;;;;;7.70;7.00;;;;;;;13.46;89.29;97921.94;4123666;28;20645;-93
2022/06/01 01:48:10;;;;;;;7.50;6.80;;;;;;;13.44;88.49;97924.69;4104428;28;20638;-94
2022/06/01 01:50:13;;;;;;;7.90;7.10;;;;;;;13.43;89.69;97928.28;4095313;28;21045;-94
2022/06/01 01:52:19;;;;;;;7.50;6.43;;;;;;;13.38;87.00;97919.13;4111884;28;20632;-92
2022/06/01 01:54:43;;;;;;;6.93;6.23;;;;;;;13.28;86.30;97926.91;4120014;28;20997;-91
2022/06/01 01:57:08;;;;;;;7.20;6.50;;;;;;;13.15;87.66;97920.16;4117964;28;20643;-93
2022/06/01 01:59:30;;;;;;;6.63;6.03;;;;;;;13.12;87.28;97917.78;4092692;28;20661;-93
2022/06/01 02:01:48;;;;;;;8.03;7.23;;;;;;;13.12;87.24;97928.28;4129275;28;20637;-92
2022/06/01 02:03:56;;;;;;;8.43;6.50;;;;;;;13.12;87.96;97928.28;4106668;28;21371;-93
2022/06/01 02:06:07;;;;;;;7.47;6.63;;;;;;;13.13;89.29;97924.69;4107519;28;20672;-94
2022/06/01 02:08:16;;;;;;;7.50;6.80;;;;;;;13.13;89.08;97924.69;4113406;28;20657;-93
2022/06/01 02:12:44;;;;;;;7.93;7.13;;;;;;;13.18;89.35;97920.78;4122874;28;20633;-93
2022/06/01 02:14:52;;;;;;;8.20;6.70;;;;;;;13.16;89.65;97924.44;4113789;28;20676;-94
2022/06/01 02:16:59;;;;;;;7.53;6.83;;;;;;;13.16;88.79;97923.63;4113505;28;20630;-94
2022/06/01 02:19:05;;;;;;;7.43;6.73;;;;;;;13.10;88.51;97927.56;4097689;28;20647;-94
2022/06/01 02:21:14;;;;;;;9.17;6.87;;;;;;;13.08;89.98;97916.41;4109403;28;20642;-93
2022/06/01 02:23:17;;;;;;;9.50;7.00;;;;;;;13.10;89.55;97924.94;4124111;28;21228;-95
2022/06/01 02:25:21;;;;;;;8.40;7.50;;;;;;;13.06;89.31;97920.91;4111252;28;20770;-95
2022/06/01 02:27:26;;;;;;;8.33;7.47;;;;;;;13.09;90.16;97930.31;4109830;28;20648;-93
2022/06/01 02:29:34;;;;;;;10.43;6.90;;;;;;;13.08;88.96;97921.63;4124152;28;21481;-93
2022/06/01 02:31:37;;;;;;;9.60;7.30;;;;;;;13.07;89.66;97914.72;4098249;28;20747;-94
2022/06/01 02:33:41;;;;;;;10.37;7.40;;;;;;;13.03;88.18;97908.06;4109330;28;20665;-93
2022/06/01 02:35:47;;;;;;;7.63;6.87;;;;;;;12.98;89.54;97910.22;4126963;28;20691;-94
2022/06/01 02:37:54;;;;;;;7.73;6.93;;;;;;;12.99;89.06;97903.19;4124777;28;20665;-94
2022/06/01 02:40:13;;;;;;;8.07;7.27;;;;;;;12.97;89.49;97907.72;4123978;28;20642;-94
2022/06/01 02:42:25;;;;;;;6.90;6.20;;;;;;;12.96;89.63;97911.28;4105561;28;20641;-93
2022/06/01 02:44:30;;;;;;;9.10;7.30;;;;;;;12.92;89.02;97902.06;4108808;28;20637;-94
2022/06/01 02:46:38;;;;;;;10.13;7.03;;;;;;;12.88;88.45;97909.28;4111080;28;20653;-94
2022/06/01 02:48:43;;;;;;;7.40;6.70;;;;;;;12.89;88.87;97908.34;4106635;28;20636;-94
2022/06/01 02:50:46;;;;;;;7.77;7.00;;;;;;;12.91;89.88;97914.28;4104735;28;20701;-94
2022/06/01 02:52:50;;;;;;;9.57;7.17;;;;;;;12.92;88.38;97910.72;4103484;28;20643;-94
2022/06/01 02:54:54;;;;;;;8.40;7.17;;;;;;;12.90;90.04;97914.41;4121101;28;20727;-93
2022/06/01 02:56:57;;;;;;;7.33;6.63;;;;;;;12.86;88.69;97910.38;4108182;28;20722;-94
2022/06/01 02:59:00;;;;;;;7.77;7.07;;;;;;;12.83;89.72;97908.84;4108282;28;20693;-94
2022/06/01 03:01:06;;;;;;;9.47;7.30;;;;;;;12.78;88.92;97908.34;4109336;28;20638;-94
2022/06/01 03:03:11;;;;;;;8.20;7.00;;;;;;;12.78;88.40;97921.44;4094993;28;21184;-94
2022/06/01 03:05:16;;;;;;;8.10;7.30;;;;;;;12.77;89.85;97922.38;4120386;28;20626;-94
2022/06/01 03:07:19;;;;;;;8.43;6.93;;;;;;;12.77;89.68;97927.63;4124583;28;20672;-93
2022/06/01 03:09:23;;;;;;;7.80;7.00;;;;;;;12.77;88.55;97927.63;4100313;28;20756;-94
2022/06/01 03:11:26;;;;;;;8.07;7.33;;;;;;;12.68;87.52;97922.28;4120727;28;20669;-94
2022/06/01 03:13:30;;;;;;;7.93;7.23;;;;;;;12.64;87.56;97914.81;4096912;28;21030;-94
2022/06/01 03:15:33;;;;;;;7.60;6.80;;;;;;;12.61;87.83;97915.03;4109581;28;20640;-94
2022/06/01 03:17:38;;;;;;;9.03;8.07;;;;;;;12.59;88.95;97923.00;4106654;28;20666;-93
2022/06/01 03:19:41;;;;;;;8.00;7.00;;;;;;;12.59;88.78;97919.56;4122256;28;21063;-94
2022/06/01 03:21:47;;;;;;;8.20;7.30;;;;;;;12.55;88.93;97918.16;4106865;28;21234;-94
2022/06/01 03:23:50;;;;;;;11.03;8.10;;;;;;;12.53;88.88;97912.22;4094893;28;20646;-93
2022/06/01 03:25:55;;;;;;;8.47;7.23;;;;;;;12.54;89.59;97921.69;4115038;28;21009;-95
2022/06/01 03:28:00;;;;;;;9.40;7.20;;;;;;;12.46;87.85;97913.63;4092969;28;20643;-95
2022/06/01 03:30:04;;;;;;;8.87;6.60;;;;;;;12.40;87.79;97914.97;4106936;28;20633;-93
2022/06/01 03:32:08;;;;;;;8.33;7.27;;;;;;;12.33;87.03;97921.63;4095947;28;20661;-94
2022/06/01 03:34:13;;;;;;;9.07;7.13;;;;;;;12.32;88.44;97919.94;4108147;28;21226;-94
2022/06/01 03:36:16;;;;;;;7.90;6.67;;;;;;;12.32;88.52;97921.75;4108127;28;20640;-93
2022/06/01 03:38:20;;;;;;;9.33;6.87;;;;;;;12.30;87.31;97918.41;4088270;28;20674;-93
2022/06/01 03:40:23;;;;;;;7.53;6.53;;;;;;;12.32;87.50;97929.59;4094349;28;20737;-94
2022/06/01 03:42:35;;;;;;;7.40;6.70;;;;;;;12.34;88.74;97927.66;4108932;28;20632;-94
2022/06/01 03:47:01;;;;;;;10.53;6.77;;;;;;;12.33;88.55;97939.09;4092206;28;21086;-93
2022/06/01 03:49:04;;;;;;;9.90;8.00;;;;;;;12.33;88.84;97936.50;4109997;28;20642;-93
2022/06/01 03:51:09;;;;;;;7.50;6.60;;;;;;;12.33;88.10;97936.50;4120361;28;20672;-93
2022/06/01 03:53:13;;;;;;;8.33;6.73;;;;;;;12.33;89.49;97933.88;4104353;28;21216;-93
2022/06/01 03:55:16;;;;;;;11.03;7.40;;;;;;;12.30;89.49;97927.09;4120923;28;20659;-92
2022/06/01 03:57:19;;;;;;;7.70;6.70;;;;;;;12.38;89.70;97934.34;4108000;28;20737;-93
2022/06/01 03:59:27;;;;;;;8.47;7.60;;;;;;;12.38;90.39;97940.38;4109864;28;20723;-93
2022/06/01 04:01:30;;;;;;;8.23;7.37;;;;;;;12.44;88.73;97942.53;4119286;28;20640;-93
2022/06/01 04:03:34;;;;;;;8.80;6.73;;;;;;;12.46;90.13;97942.41;4117223;28;21061;-93
2022/06/01 04:05:38;;;;;;;8.77;7.30;;;;;;;12.47;89.64;97933.63;4104425;28;20636;-93
2022/06/01 04:07:42;;;;;;;7.60;6.90;;;;;;;12.52;89.62;97936.69;4109866;28;20673;-93
2022/06/01 04:09:48;;;;;;;8.30;7.50;;;;;;;12.54;90.75;97942.63;4105698;28;20638;-93
2022/06/01 04:11:51;;;;;;;7.80;7.00;;;;;;;12.55;90.69;97936.47;4108120;28;20665;-93
2022/06/01 04:13:55;;;;;;;8.70;7.80;;;;;;;12.56;90.19;97943.38;4088741;28;20635;-94
2022/06/01 04:15:58;;;;;;;8.70;7.80;;;;;;;12.58;89.77;97941.44;4120695;28;20621;-94
2022/06/01 04:18:15;;;;;;;9.87;7.53;;;;;;;12.61;88.40;97941.22;4104335;28;20635;-93
2022/06/01 04:20:18;;;;;;;10.03;7.13;;;;;;;12.67;89.54;97946.78;4092087;28;20742;-94
2022/06/01 04:22:21;;;;;;;8.70;7.80;;;;;;;12.68;90.15;97951.91;4094247;28;20654;-93
2022/06/01 04:24:29;;;;;;;7.20;6.50;;;;;;;12.72;90.16;97950.72;4107666;28;20622;-93
2022/06/01 04:26:32;;;;;;;7.83;7.13;;;;;;;12.71;90.10;97951.66;4107906;28;20637;-93
2022/06/01 04:28:36;;;;;;;8.37;6.73;;;;;;;12.73;88.61;97947.16;4104790;28;20721;-93
2022/06/01 04:30:39;;;;;;;9.00;7.97;;;;;;;12.79;89.60;97944.06;4122587;28;20667;-93
2022/06/01 04:32:43;;;;;;;8.10;7.30;;;;;;;12.80;88.44;97942.25;4090791;28;21256;-94
2022/06/01 04:34:46;;;;;;;8.23;7.40;;;;;;;12.86;89.08;97941.81;4118170;28;20641;-92
2022/06/01 04:36:52;;;;;;;8.80;7.47;;;;;;;12.93;87.91;97942.97;4109530;28;20667;-94
2022/06/01 04:38:55;;;;;;;7.90;7.20;;;;;;;12.97;88.76;97945.22;4087761;28;20641;-94
2022/06/01 04:41:00;;;;;;;9.43;7.30;;;;;;;13.00;89.05;97944.97;4094458;28;20637;-93
2022/06/01 04:43:03;;;;;;;8.30;7.50;;;;;;;13.02;88.67;97944.84;4120034;28;20657;-94
2022/06/01 04:45:08;;;;;;;8.50;7.70;;;;;;;13.09;88.22;97941.59;4118217;28;20630;-91
2022/06/01 04:47:11;;;;;;;9.07;7.07;;;;;;;13.17;89.55;97947.06;4119782;28;20638;-89
2022/06/01 04:49:15;;;;;;;7.93;7.13;;;;;;;13.23;87.91;97944.78;4124884;28;20650;-91
2022/06/01 04:51:20;;;;;;;9.07;7.63;;;;;;;13.29;89.59;97940.81;4112035;28;20649;-91
2022/06/01 04:53:24;;;;;;;7.90;7.13;;;;;;;13.35;88.56;97940.31;4094791;28;20646;-92
2022/06/01 04:55:27;;;;;;;8.30;7.43;;;;;;;13.38;89.55;97940.06;4112851;28;20724;-92
2022/06/01 04:57:31;;;;;;;9.00;7.00;;;;;;;13.45;87.91;97939.44;4106823;28;20665;-92
2022/06/01 04:59:35;;;;;;;7.90;7.10;;;;;;;13.49;89.06;97937.44;4114965;28;20645;-91
2022/06/01 05:01:38;;;;;;;10.23;6.97;;;;;;;13.48;88.30;97936.56;4115112;28;20624;-91
2022/06/01 05:03:41;;;;;;;10.13;7.33;;;;;;;13.52;88.23;97937.19;4095732;28;20690;-91
2022/06/01 05:05:46;;;;;;;8.80;7.90;;;;;;;13.55;87.54;97937.75;4114681;28;20721;-90
2022/06/01 05:07:49;;;;;;;7.93;7.17;;;;;;;13.60;87.54;97937.38;4109734;28;20696;-89
2022/06/01 05:09:52;;;;;;;9.47;7.30;;;;;;;13.65;87.12;97941.25;4131672;28;20780;-89
2022/06/01 05:12:05;;;;;;;9.80;7.40;;;;;;;13.72;87.47;97937.16;4132840;28;20657;-88
2022/06/01 05:14:09;;;;;;;9.33;8.07;;;;;;;13.79;87.68;97938.34;4095828;28;20725;-90
2022/06/01 05:16:13;;;;;;;8.90;8.00;;;;;;;13.86;87.67;97940.31;4111429;28;20649;-91
2022/06/01 05:18:16;;;;;;;8.87;7.97;;;;;;;13.86;86.73;97932.44;4112220;28;21178;-91
2022/06/01 05:20:20;;;;;;;8.80;7.90;;;;;;;13.89;87.31;97949.69;4128173;28;20629;-91
2022/06/01 05:22:23;;;;;;;9.63;8.60;;;;;;;13.96;88.05;97941.19;4105502;28;20665;-92
2022/06/01 05:24:26;;;;;;;8.80;7.90;;;;;;;14.08;87.88;97942.00;4097595;28;20664;-92
2022/06/01 05:26:29;;;;;;;7.87;7.17;;;;;;;14.19;87.94;97946.19;4112873;28;20627;-91
2022/06/01 05:28:36;;;;;;;7.97;7.17;;;;;;;14.31;87.36;97939.06;4109727;28;21270;-89
2022/06/01 05:30:40;;;;;;;7.97;7.17;;;;;;;14.45;88.01;97949.19;4109287;28;21263;-89
2022/06/01 05:32:43;;;;;;;8.87;7.67;;;;;;;14.58;87.52;97944.56;4104893;28;20655;-89
2022/06/01 05:34:47;;;;;;;10.33;7.67;;;;;;;14.70;86.27;97946.94;4107981;28;20674;-89
2022/06/01 05:36:50;;;;;;;7.90;7.10;;;;;;;14.89;86.10;97949.66;4109135;28;20732;-89
2022/06/01 05:38:53;;;;;;;8.20;7.27;;;;;;;15.09;84.69;97950.38;4112146;28;20634;-89
2022/06/01 05:40:56;;;;;;;7.63;6.83;;;;;;;15.37;85.08;97954.88;4109192;28;20630;-90
2022/06/01 05:42:59;;;;;;;8.87;6.83;;;;;;;15.66;82.71;97958.31;4125868;28;20729;-89
2022/06/01 05:45:03;;;;;;;8.70;6.70;;;;;;;15.95;83.09;97944.19;4110275;28;20647;-89
2022/06/01 05:47:08;;;;;;;10.63;7.30;;;;;;;16.34;83.89;97958.94;4107319;28;20734;-89
2022/06/01 05:49:13;;;;;;;6.83;6.13;;;;;;;16.69;80.80;97957.28;4120683;28;20643;-89
2022/06/01 05:51:16;;;;;;;7.40;6.80;;;;;;;17.01;80.38;97963.78;4123075;28;20643;-90
2022/06/01 05:53:19;;;;;;;8.57;6.70;;;;;;;17.22;80.17;97957.28;4100544;28;20649;-90
2022/06/01 05:55:22;;;;;;;7.97;6.93;;;;;;;17.58;79.36;97958.97;4110634;28;20646;-90
2022/06/01 05:57:25;;;;;;;7.10;6.43;;;;;;;17.91;78.89;97955.66;4123398;28;20638;-89
2022/06/01 05:59:30;;;;;;;7.07;6.37;;;;;;;18.14;78.52;97955.03;4123004;28;20642;-89
2022/06/01 06:01:33;;;;;;;7.30;6.60;;;;;;;18.35;76.15;97958.13;4090522;28;20643;-89
2022/06/01 06:03:38;;;;;;;8.53;6.60;;;;;;;18.53;75.53;97965.00;4106931;28;20647;-90
2022/06/01 06:08:02;;;;;;;7.37;6.53;;;;;;;19.16;74.78;97972.44;4091410;29;20659;-90
2022/06/01 06:10:06;;;;;;;8.13;6.50;;;;;;;19.50;75.48;97980.16;4123248;28;20644;-90
2022/06/01 06:12:09;;;;;;;7.03;6.30;;;;;;;19.80;75.44;97979.53;4103060;28;21074;-90
2022/06/01 06:14:16;;;;;;;7.40;6.10;;;;;;;19.93;72.44;97977.25;4087504;28;20630;-89
2022/06/01 06:16:19;;;;;;;8.20;6.50;;;;;;;20.08;70.46;97983.53;4125149;28;20642;-90
2022/06/01 06:18:22;;;;;;;7.07;5.60;;;;;;;20.26;72.42;97976.25;4128882;28;20665;-89
2022/06/01 06:20:27;;;;;;;7.30;5.90;;;;;;;20.46;72.79;97978.34;4130422;28;20684;-90
2022/06/01 06:22:30;;;;;;;7.40;5.80;;;;;;;20.67;70.78;97978.66;4093527;28;20656;-89
2022/06/01 06:24:35;;;;;;;7.17;6.00;;;;;;;20.80;70.89;97981.66;4107202;28;20630;-88
2022/06/01 06:26:41;;;;;;;6.63;5.73;;;;;;;20.98;71.63;97988.38;4088535;28;20633;-89
2022/06/01 06:28:44;;;;;;;5.93;5.33;;;;;;;21.26;70.42;97985.13;4091540;29;20694;-89
2022/06/01 06:30:48;;;;;;;6.43;5.83;;;;;;;21.43;69.15;97984.84;4097322;28;20668;-89
2022/06/01 06:32:51;;;;;;;7.03;5.60;;;;;;;21.61;70.59;97984.63;4103233;28;21227;-92
2022/06/01 06:34:54;;;;;;;5.30;4.80;;;;;;;21.80;67.55;97992.97;4095589;28;20696;-92
2022/06/01 06:36:58;;;;;;;5.77;5.17;;;;;;;22.03;67.44;97985.81;4113610;28;20707;-92
2022/06/01 06:39:02;;;;;;;5.67;4.90;;;;;;;22.19;67.41;97990.97;4108001;28;20692;-92
2022/06/01 06:41:05;;;;;;;5.67;5.10;;;;;;;22.47;68.22;97993.75;4109076;28;20669;-92
2022/06/01 06:43:09;;;;;;;5.60;4.87;;;;;;;22.74;66.97;97993.16;4104627;28;20745;-92
2022/06/01 06:45:12;;;;;;;5.97;5.27;;;;;;;22.94;66.14;97997.78;4097253;29;20673;-92
2022/06/01 06:47:16;;;;;;;6.10;5.47;;;;;;;23.05;64.72;97996.47;4111924;28;21010;-92
2022/06/01 06:49:20;;;;;;;5.37;4.87;;;;;;;23.29;67.73;97995.19;4109283;28;21216;-91
2022/06/01 06:51:25;;;;;;;5.93;5.00;;;;;;;23.49;64.09;98006.09;4096493;28;20721;-92
2022/06/01 06:53:49;;;;;;;6.90;4.87;;;;;;;23.65;65.38;98001.41;4126550;28;20767;-92
2022/06/01 06:55:52;;;;;;;6.73;4.67;;;;;;;23.85;62.30;97997.13;4112417;28;20627;-92
2022/06/01 06:57:55;;;;;;;5.27;4.67;;;;;;;23.92;66.03;97998.84;4109166;28;20644;-90
2022/06/01 06:59:59;;;;;;;5.63;5.13;;;;;;;23.95;64.25;97994.94;4093234;28;20667;-90
2022/06/01 07:02:02;;;;;;;6.70;5.30;;;;;;;24.03;61.04;97989.50;4108322;28;20623;-90
2022/06/01 07:04:24;;;;;;;7.17;4.90;;;;;;;24.01;61.13;97992.38;4126301;28;20768;-89
2022/06/01 07:06:27;;;;;;;4.83;4.33;;;;;;;24.04;61.57;97985.81;4108942;28;20658;-90
2022/06/01 07:08:31;;;;;;;4.83;4.27;;;;;;;24.19;63.50;97985.56;4121470;28;20699;-90
2022/06/01 07:10:35;;;;;;;5.00;4.37;;;;;;;24.40;61.34;97976.72;4112073;28;20641;-90
2022/06/01 07:12:38;;;;;;;5.00;4.50;;;;;;;24.51;62.17;97982.38;4091828;28;20650;-90
2022/06/01 07:14:42;;;;;;;5.20;4.73;;;;;;;24.59;61.40;97982.22;4115414;28;21237;-90
2022/06/01 07:16:45;;;;;;;6.37;4.43;;;;;;;24.60;61.55;97981.22;4115057;28;20692;-90
2022/06/01 07:18:50;;;;;;;7.03;4.50;;;;;;;24.73;60.84;97978.63;4097150;28;20688;-90
2022/06/01 07:20:53;;;;;;;4.97;4.57;;;;;;;24.87;61.77;97975.88;4106429;28;20640;-90
2022/06/01 07:22:57;;;;;;;4.17;3.77;;;;;;;25.03;59.23;97980.09;4098531;28;20642;-90
2022/06/01 07:25:00;;;;;;;4.43;4.00;;;;;;;25.26;60.99;97978.78;4094033;29;20741;-90
2022/06/01 07:27:05;;;;;;;4.20;3.80;;;;;;;25.35;59.39;97983.75;4127654;28;20638;-90
2022/06/01 07:29:08;;;;;;;5.70;3.90;;;;;;;25.38;59.74;97982.50;4111619;28;21231;-90
2022/06/01 07:31:11;;;;;;;5.47;4.33;;;;;;;25.45;58.36;97980.69;4090085;28;20730;-90
2022/06/01 07:33:15;;;;;;;6.10;4.30;;;;;;;25.61;59.62;97995.34;4094943;28;20675;-90
2022/06/01 07:35:19;;;;;;;4.80;4.40;;;;;;;25.73;59.42;97996.47;4110468;28;20637;-89
2022/06/01 07:44:34;;;;;;;4.20;3.80;;;;;;;26.04;59.79;97987.88;4112814;28;20715;-91
2022/06/01 07:46:38;;;;;;;4.77;3.83;;;;;;;26.22;58.94;97986.25;4107795;28;20645;-91
2022/06/01 07:48:49;;;;;;;7.13;3.90;;;;;;;26.27;57.95;97978.47;4123801;28;20639;-91
2022/06/01 07:51:13;;;;;;;5.37;4.40;;;;;;;26.26;58.80;97988.31;4105362;28;20752;-92
2022/06/01 07:53:16;;;;;;;5.40;4.50;;;;;;;26.28;58.45;97989.00;4127594;28;21194;-92
2022/06/01 07:55:20;;;;;;;4.53;3.80;;;;;;;26.42;57.47;97985.28;4130552;28;20630;-92
2022/06/01 07:57:24;;;;;;;4.87;4.20;;;;;;;26.47;57.42;97979.31;4110401;28;20632;-92
2022/06/01 07:59:27;;;;;;;5.67;4.20;;;;;;;26.49;57.83;97983.47;4111290;28;20635;-92
2022/06/01 08:01:31;;;;;;;4.47;3.80;;;;;;;26.57;58.40;97983.25;4097322;29;20742;-91
2022/06/01 08:03:35;;;;;;;4.63;4.23;;;;;;;26.55;57.18;97976.44;4113786;28;20631;-91
2022/06/01 08:05:38;;;;;;;4.30;3.90;;;;;;;26.47;57.72;97977.47;4127962;28;20636;-91
2022/06/01 08:07:41;;;;;;;7.17;4.93;;;;;;;26.49;57.45;97977.25;4106602;28;21438;-92
2022/06/01 08:09:44;;;;;;;4.70;4.30;;;;;;;26.57;60.01;97977.88;4105780;28;20664;-91
2022/06/01 08:14:10;;;;;;;4.20;3.80;;;;;;;26.73;55.18;97978.28;4110434;28;20664;-90
2022/06/01 08:16:13;;;;;;;5.73;4.23;;;;;;;26.67;56.24;97976.44;4127236;28;20639;-90
2022/06/01 08:18:19;;;;;;;4.40;3.97;;;;;;;26.55;56.84;97971.91;4089792;28;20695;-90
2022/06/01 08:20:22;;;;;;;6.53;5.50;;;;;;;26.72;56.55;97973.94;4087813;28;20647;-90
2022/06/01 08:22:34;;;;;;;7.87;4.70;;;;;;;26.83;58.21;97970.63;4126817;28;20701;-90
2022/06/01 08:24:38;;;;;;;7.20;4.47;;;;;;;26.95;58.03;97963.63;4108836;28;20657;-90
2022/06/01 08:26:41;;;;;;;5.67;4.40;;;;;;;26.99;57.01;97969.38;4110596;28;21039;-91
2022/06/01 08:28:44;;;;;;;4.53;4.07;;;;;;;27.04;58.70;97972.28;4108498;28;21263;-92
2022/06/01 08:30:49;;;;;;;8.00;4.70;;;;;;;27.09;56.39;97979.47;4096996;28;20644;-92
2022/06/01 08:32:54;;;;;;;5.80;4.87;;;;;;;27.25;56.92;97976.31;4131205;28;20999;-92
2022/06/01 08:34:57;;;;;;;4.33;3.87;;;;;;;27.38;55.38;97975.44;4111858;28;20690;-92
2022/06/01 08:37:09;;;;;;;25.63;12.37;;;;;;;27.46;57.13;97973.38;4111202;28;20797;-93
2022/06/01 08:39:24;;;;;;;15.00;8.00;;;;;;;27.42;57.57;97974.81;4114655;28;20735;-92
2022/06/01 08:41:31;;;;;;;5.23;4.43;;;;;;;27.32;56.55;97979.81;4116088;28;20725;-92
2022/06/01 08:43:39;;;;;;;12.20;7.23;;;;;;;27.28;56.12;97975.09;4122352;28;20911;-93
2022/06/01 08:45:48;;;;;;;13.40;4.70;;;;;;;27.36;55.99;97975.66;4113722;28;20651;-93
2022/06/01 08:47:52;;;;;;;10.13;3.93;;;;;;;27.41;56.06;97972.34;4108355;28;20636;-93
2022/06/01 08:49:58;;;;;;;5.23;4.23;;;;;;;27.29;57.12;97969.53;4106449;28;20644;-93
2022/06/01 08:52:02;;;;;;;7.70;4.50;;;;;;;27.37;56.73;97974.63;4110971;28;20631;-93
2022/06/01 08:54:05;;;;;;;6.50;4.63;;;;;;;27.35;55.07;97965.16;4130491;28;20659;-92
2022/06/01 08:56:11;;;;;;;18.13;8.47;;;;;;;27.39;55.96;97966.38;4092550;29;20628;-93
2022/06/01 08:58:18;;;;;;;4.90;4.30;;;;;;;27.39;55.79;97969.88;4104548;28;21033;-92
2022/06/01 09:00:22;;;;;;;5.67;4.53;;;;;;;27.42;54.53;97965.97;4110600;28;20671;-93
2022/06/01 09:02:37;;;;;;;4.97;4.33;;;;;;;27.40;54.26;97966.19;4109279;28;20652;-92
2022/06/01 09:04:48;;;;;;;5.83;4.03;;;;;;;27.46;56.58;97961.84;4110390;28;20996;-93
2022/06/01 09:06:56;;;;;;;3.83;3.40;;;;;;;27.40;53.16;97965.38;4090568;28;20660;-93
2022/06/01 09:09:04;;;;;;;3.80;3.40;;;;;;;27.50;54.25;97969.28;4096472;28;21212;-93
2022/06/01 09:11:09;;;;;;;5.07;3.13;;;;;;;27.59;53.93;97976.03;4094209;28;21235;-93
2022/06/01 09:13:14;;;;;;;5.07;3.40;;;;;;;27.54;53.39;97973.16;4090577;28;20666;-93
2022/06/01 09:15:22;;;;;;;3.30;3.00;;;;;;;27.44;52.21;97971.94;4125264;28;21020;-92
2022/06/01 09:17:26;;;;;;;4.27;3.30;;;;;;;26.80;50.01;97963.00;4091696;28;21208;-92
2022/06/01 09:22:37;;;;;;;4.47;3.40;;;;;;;26.55;52.09;97971.91;4116107;28;20646;-92
2022/06/01 09:24:22;;;;;;;3.23;2.93;;;;;;;26.00;51.49;97981.31;4114532;28;20631;-92
2022/06/01 09:26:27;;;;;;;4.40;3.07;;;;;;;25.76;52.32;97968.50;4131318;28;20645;-92
2022/06/01 09:28:31;;;;;;;6.73;3.13;;;;;;;25.64;52.63;97972.78;4110710;28;20675;-91
2022/06/01 09:30:36;;;;;;;4.93;2.70;;;;;;;25.67;55.07;97964.38;4126594;28;20646;-92
2022/06/01 09:32:40;;;;;;;5.47;2.93;;;;;;;25.69;51.36;97964.97;4094219;29;20636;-92
2022/06/01 09:34:47;;;;;;;5.33;3.07;;;;;;;25.51;54.09;97970.03;4117993;28;21157;-92
2022/06/01 09:36:58;;;;;;;4.63;2.77;;;;;;;25.32;52.58;97965.44;4130429;28;21212;-92
2022/06/01 09:39:04;;;;;;;4.03;2.80;;;;;;;25.23;52.30;97961.31;4089567;28;20641;-92
2022/06/01 09:41:10;;;;;;;3.27;2.67;;;;;;;25.49;52.87;97966.75;4126559;28;20750;-92
2022/06/01 09:43:24;;;;;;;5.90;2.77;;;;;;;25.75;52.73;97966.84;4123796;28;20637;-92
2022/06/01 09:45:32;;;;;;;4.67;2.90;;;;;;;25.98;51.62;97969.97;4126407;28;20786;-90
2022/06/01 09:47:40;;;;;;;3.90;3.00;;;;;;;25.93;51.04;97967.91;4125744;28;20716;-91
2022/06/01 09:49:52;;;;;;;4.13;2.90;;;;;;;26.07;52.06;97974.97;4111554;28;20648;-89
2022/06/01 09:51:59;;;;;;;3.80;3.40;;;;;;;26.19;51.93;97973.28;4121858;28;20736;-90
2022/06/01 09:54:12;;;;;;;6.10;3.20;;;;;;;26.30;53.07;97976.22;4121615;28;20822;-89
2022/06/01 09:56:19;;;;;;;4.17;3.13;;;;;;;26.30;49.97;97976.22;4120243;28;20689;-89
2022/06/01 10:08:08;;;;;;;5.40;3.33;;;;;;;26.51;53.74;97980.53;4109426;28;20706;-90
2022/06/01 10:10:23;;;;;;;4.20;2.77;;;;;;;26.50;51.81;97984.28;4095748;28;21184;-90
2022/06/01 10:12:33;;;;;;;3.70;3.30;;;;;;;26.47;51.65;97977.47;4111537;28;20750;-90
2022/06/01 10:14:37;;;;;;;4.03;3.50;;;;;;;26.47;51.53;97982.81;4109113;28;20663;-90
2022/06/01 10:16:48;;;;;;;4.77;4.20;;;;;;;26.47;52.67;97973.97;4107647;28;20739;-90
2022/06/01 10:18:52;;;;;;;4.10;3.33;;;;;;;26.58;51.78;97971.47;4097249;28;21164;-90